Time;durP1;ratioP1;P1;durP2;ratioP2;P2;SDS_P1;SDS_P2;PMS_P1;PMS_P2;Temp;Humidity;BMP_temperature;BMP_pressure;BME280_temperature;BME280_humidity;BME280_pressure;Samples;Min_cycle;Max_cycle;Signal;HPM_P1;HPM_P2
2022/01/08 00:00:45;;;;;;;7.00;1.77;;;3.80;99.90;;;;;;5031283;28;20053;-61
2022/01/08 00:03:10;;;;;;;11.93;2.10;;;3.90;99.90;;;;;;5025501;28;20049;-60
2022/01/08 00:05:36;;;;;;;5.00;1.73;;;3.80;99.90;;;;;;5026707;28;20049;-61
2022/01/08 00:08:02;;;;;;;5.57;1.35;;;3.90;99.90;;;;;;5024775;28;20133;-61
2022/01/08 00:10:27;;;;;;;6.90;1.58;;;3.80;99.90;;;;;;5017281;28;20756;-61
2022/01/08 00:12:53;;;;;;;10.93;1.88;;;3.80;99.90;;;;;;5025659;28;20049;-61
2022/01/08 00:15:19;;;;;;;7.30;2.05;;;3.80;99.90;;;;;;5031026;28;20481;-61
2022/01/08 00:17:44;;;;;;;10.05;2.47;;;3.80;99.90;;;;;;5027742;28;20152;-61
2022/01/08 00:20:10;;;;;;;8.05;2.03;;;3.80;99.90;;;;;;5016397;28;20038;-60
2022/01/08 00:22:36;;;;;;;10.13;2.10;;;3.80;99.90;;;;;;5025973;28;20056;-60
2022/01/08 00:25:02;;;;;;;17.58;2.60;;;3.80;99.90;;;;;;5022446;28;20034;-60
2022/01/08 00:27:27;;;;;;;9.00;2.00;;;3.70;99.90;;;;;;5018883;28;20049;-60
2022/01/08 00:29:53;;;;;;;5.80;2.55;;;3.70;99.90;;;;;;5021303;28;20050;-60
2022/01/08 00:32:19;;;;;;;5.32;2.60;;;3.70;99.90;;;;;;5020217;28;20034;-60
2022/01/08 00:34:44;;;;;;;8.02;2.40;;;3.70;99.90;;;;;;5025003;28;20127;-60
2022/01/08 00:37:10;;;;;;;7.25;2.35;;;3.70;99.90;;;;;;5020820;28;20057;-60
2022/01/08 00:39:36;;;;;;;10.27;2.05;;;3.70;99.90;;;;;;5023987;28;20124;-60
2022/01/08 00:42:03;;;;;;;6.60;2.58;;;3.70;99.90;;;;;;5019600;28;20049;-60
2022/01/08 00:44:28;;;;;;;11.23;3.42;;;3.70;99.90;;;;;;5024572;28;20240;-60
2022/01/08 00:46:54;;;;;;;10.20;2.40;;;3.80;99.90;;;;;;5014377;28;20165;-60
2022/01/08 00:49:20;;;;;;;7.82;2.05;;;3.80;99.90;;;;;;5023946;28;20072;-60
2022/01/08 00:51:45;;;;;;;7.05;1.90;;;3.80;99.90;;;;;;5024701;28;20042;-60
2022/01/08 00:54:11;;;;;;;8.73;2.17;;;3.80;99.90;;;;;;5021419;28;20034;-60
2022/01/08 00:56:37;;;;;;;5.80;1.42;;;3.90;99.90;;;;;;5017869;28;20080;-60
2022/01/08 00:59:04;;;;;;;6.35;1.33;;;3.90;99.90;;;;;;5022728;28;20042;-60
2022/01/08 01:01:30;;;;;;;3.00;0.90;;;3.90;99.90;;;;;;5024876;28;20129;-60
2022/01/08 01:03:56;;;;;;;6.93;1.35;;;3.90;99.90;;;;;;5017356;28;20569;-60
2022/01/08 01:06:22;;;;;;;4.40;1.02;;;3.80;99.90;;;;;;5022035;28;20425;-60
2022/01/08 01:08:48;;;;;;;3.45;1.10;;;3.80;99.90;;;;;;5009357;28;20077;-60
2022/01/08 01:11:14;;;;;;;6.07;1.30;;;3.80;99.90;;;;;;5021797;28;20135;-60
2022/01/08 01:13:39;;;;;;;5.25;1.05;;;3.80;99.90;;;;;;5026891;28;20044;-60
2022/01/08 01:16:05;;;;;;;4.45;1.00;;;3.80;99.90;;;;;;5024569;28;20045;-60
2022/01/08 01:18:31;;;;;;;5.70;1.45;;;3.80;99.90;;;;;;5028365;28;20389;-60
2022/01/08 01:20:57;;;;;;;5.72;1.27;;;3.70;99.90;;;;;;5017524;28;20053;-60
2022/01/08 01:23:30;;;;;;;5.65;1.80;;;3.70;99.90;;;;;;5025672;28;20077;-60
2022/01/08 01:26:00;;;;;;;1.15;0.77;;;3.70;99.90;;;;;;5023947;28;20061;-60
2022/01/08 01:41:10;;;;;;;4.68;0.95;;;3.70;99.90;;;;;;5019976;28;20428;-60
2022/01/08 01:47:15;;;;;;;2.45;0.93;;;3.60;99.90;;;;;;5026987;28;20077;-60
2022/01/08 01:49:44;;;;;;;5.38;0.95;;;3.60;99.90;;;;;;5026211;28;20041;-60
2022/01/08 01:52:12;;;;;;;4.30;1.05;;;3.50;99.90;;;;;;5023388;28;20091;-60
2022/01/08 01:54:38;;;;;;;17.08;2.13;;;3.60;99.90;;;;;;5015676;28;20575;-59
2022/01/08 01:57:05;;;;;;;9.00;1.55;;;3.60;99.90;;;;;;5003421;28;20064;-60
2022/01/08 01:59:33;;;;;;;10.48;1.50;;;3.60;99.90;;;;;;5013335;28;20049;-59
2022/01/08 02:02:00;;;;;;;5.78;1.42;;;3.60;99.90;;;;;;5017507;28;20034;-59
2022/01/08 02:04:26;;;;;;;4.85;1.48;;;3.70;99.90;;;;;;5004018;28;20053;-59
2022/01/08 02:06:52;;;;;;;11.07;1.50;;;3.80;99.90;;;;;;5018073;28;20049;-59
2022/01/08 02:09:18;;;;;;;9.10;1.42;;;3.80;99.90;;;;;;5017152;28;20092;-60
2022/01/08 02:12:04;;;;;;;4.13;1.10;;;3.80;99.90;;;;;;5001293;28;20050;-59
2022/01/08 02:14:35;;;;;;;8.65;1.30;;;3.80;99.90;;;;;;5019868;28;20109;-59
2022/01/08 02:17:03;;;;;;;6.75;1.73;;;3.90;99.90;;;;;;5020041;28;20870;-59
2022/01/08 02:19:28;;;;;;;8.52;2.33;;;3.90;99.90;;;;;;5004487;28;20542;-59
2022/01/08 02:21:57;;;;;;;4.93;1.00;;;3.90;99.90;;;;;;5018314;28;20123;-59
2022/01/08 02:24:24;;;;;;;11.05;1.88;;;3.90;99.90;;;;;;5028309;28;20041;-59
2022/01/08 02:26:50;;;;;;;8.02;1.05;;;3.80;99.90;;;;;;5021554;28;20042;-60
2022/01/08 02:29:18;;;;;;;6.15;1.23;;;3.80;99.90;;;;;;5008368;28;20625;-60
2022/01/08 02:31:56;;;;;;;7.47;1.05;;;3.70;99.90;;;;;;5026143;28;20045;-60
2022/01/08 02:34:22;;;;;;;11.45;1.83;;;3.80;99.90;;;;;;5023912;28;20122;-60
2022/01/08 02:36:48;;;;;;;5.30;1.02;;;3.70;99.90;;;;;;5027435;28;20124;-60
2022/01/08 02:39:13;;;;;;;7.00;1.25;;;3.70;99.90;;;;;;5017588;28;20132;-60
2022/01/08 02:41:40;;;;;;;3.80;1.25;;;3.70;99.90;;;;;;5021048;28;20633;-60
2022/01/08 02:44:09;;;;;;;2.13;0.90;;;3.70;99.90;;;;;;5021399;28;20050;-60
2022/01/08 02:46:36;;;;;;;5.80;1.67;;;3.80;99.90;;;;;;5006310;28;20048;-60
2022/01/08 02:49:02;;;;;;;2.92;1.55;;;3.80;99.90;;;;;;5022114;28;20057;-60
2022/01/08 02:51:31;;;;;;;6.25;2.67;;;3.80;99.90;;;;;;5020127;28;20045;-60
2022/01/08 02:53:56;;;;;;;4.72;1.00;;;3.80;99.90;;;;;;5026556;28;20099;-60
2022/01/08 02:56:22;;;;;;;6.22;1.13;;;3.70;99.90;;;;;;5019389;28;20057;-59
2022/01/08 02:58:47;;;;;;;7.63;1.00;;;3.70;99.90;;;;;;5017349;28;20084;-60
2022/01/08 03:01:13;;;;;;;2.35;0.80;;;3.60;99.90;;;;;;5026006;28;20049;-60
2022/01/08 03:03:38;;;;;;;1.50;0.73;;;3.60;99.90;;;;;;5020637;28;20034;-60
2022/01/08 03:06:04;;;;;;;6.95;1.33;;;3.50;99.90;;;;;;5016231;28;20507;-60
2022/01/08 03:08:29;;;;;;;5.47;0.95;;;3.50;99.90;;;;;;5017076;28;20117;-60
2022/01/08 03:10:55;;;;;;;5.22;0.93;;;3.50;99.90;;;;;;5017036;28;20592;-60
2022/01/08 03:13:20;;;;;;;7.60;1.20;;;3.40;99.90;;;;;;5019644;28;20072;-60
2022/01/08 03:15:46;;;;;;;2.70;0.95;;;3.40;99.90;;;;;;5026246;28;20071;-60
2022/01/08 03:18:11;;;;;;;9.18;1.42;;;3.30;99.90;;;;;;5026059;28;20049;-60
2022/01/08 03:20:46;;;;;;;4.93;0.90;;;3.40;99.90;;;;;;5021446;28;20041;-60
2022/01/08 03:23:15;;;;;;;6.10;0.88;;;3.40;99.90;;;;;;5017002;28;20579;-60
2022/01/08 03:25:41;;;;;;;3.63;1.23;;;3.50;99.90;;;;;;5015236;28;20052;-60
2022/01/08 03:28:07;;;;;;;4.40;0.98;;;3.40;99.90;;;;;;5016898;28;20096;-60
2022/01/08 03:30:34;;;;;;;11.07;1.85;;;3.40;99.90;;;;;;5024452;28;20049;-61
2022/01/08 03:33:00;;;;;;;5.85;1.65;;;3.40;99.90;;;;;;5019736;28;20096;-60
2022/01/08 03:35:26;;;;;;;13.65;1.48;;;3.30;99.90;;;;;;5029691;28;20378;-60
2022/01/08 03:37:51;;;;;;;4.22;1.45;;;3.30;99.90;;;;;;5028942;28;20140;-60
2022/01/08 03:40:17;;;;;;;6.80;2.13;;;3.30;99.90;;;;;;5027370;28;20049;-60
2022/01/08 03:42:43;;;;;;;7.13;1.25;;;3.30;99.90;;;;;;5023830;28;20081;-60
2022/01/08 03:45:09;;;;;;;4.45;1.48;;;3.20;99.90;;;;;;5027629;28;20042;-60
2022/01/08 03:50:16;;;;;;;7.28;1.38;;;3.30;99.90;;;;;;5025561;28;20062;-60
2022/01/08 03:52:42;;;;;;;6.78;1.40;;;3.30;99.90;;;;;;5030998;28;20165;-60
2022/01/08 03:55:07;;;;;;;5.32;1.40;;;3.20;99.90;;;;;;5026094;28;20049;-60
2022/01/08 03:57:33;;;;;;;5.18;1.40;;;3.30;99.90;;;;;;5019320;28;20041;-60
2022/01/08 03:59:59;;;;;;;4.60;1.30;;;3.30;99.90;;;;;;5031315;28;20121;-60
2022/01/08 04:02:25;;;;;;;4.82;1.33;;;3.30;99.90;;;;;;5025253;28;20077;-60
2022/01/08 04:04:50;;;;;;;5.70;1.02;;;3.30;99.90;;;;;;5025518;28;20063;-60
2022/01/08 04:07:16;;;;;;;11.70;2.13;;;3.30;99.90;;;;;;5017941;28;20049;-60
2022/01/08 04:09:41;;;;;;;6.50;1.77;;;3.30;99.90;;;;;;5028632;28;20058;-60
2022/01/08 04:12:08;;;;;;;12.23;2.60;;;3.40;99.90;;;;;;5023011;28;20527;-60
2022/01/08 04:14:51;;;;;;;9.25;1.20;;;3.40;99.90;;;;;;5029324;28;20041;-60
2022/01/08 04:17:17;;;;;;;4.20;1.20;;;3.40;99.90;;;;;;5014223;28;20046;-60
2022/01/08 04:19:43;;;;;;;7.82;1.60;;;3.50;99.90;;;;;;5024833;28;20846;-60
2022/01/08 04:22:12;;;;;;;9.18;2.42;;;3.50;99.90;;;;;;5015330;28;20044;-60
2022/01/08 04:24:41;;;;;;;7.32;1.63;;;3.60;99.90;;;;;;5026414;28;20125;-60
2022/01/08 04:27:07;;;;;;;7.95;1.52;;;3.60;99.90;;;;;;5022275;28;20104;-60
2022/01/08 04:29:33;;;;;;;5.30;2.13;;;3.70;99.90;;;;;;5029408;28;20643;-60
2022/01/08 04:31:58;;;;;;;6.03;1.30;;;3.70;99.90;;;;;;5028044;28;20033;-60
2022/01/08 04:34:24;;;;;;;5.82;1.65;;;3.70;99.90;;;;;;5027099;28;20037;-60
2022/01/08 04:36:49;;;;;;;6.68;1.40;;;3.70;99.90;;;;;;5019145;28;20063;-60
2022/01/08 04:39:15;;;;;;;11.43;2.45;;;3.80;99.90;;;;;;5011375;28;20456;-60
2022/01/08 04:41:42;;;;;;;12.05;1.67;;;3.70;99.90;;;;;;5025901;28;20041;-60
2022/01/08 04:44:09;;;;;;;9.35;1.50;;;3.70;99.90;;;;;;5014815;28;20582;-60
2022/01/08 04:46:35;;;;;;;6.40;1.25;;;3.70;99.90;;;;;;5006364;28;20053;-60
2022/01/08 04:49:00;;;;;;;8.02;1.80;;;3.70;99.90;;;;;;5019079;28;20045;-60
2022/01/08 04:51:26;;;;;;;14.07;2.47;;;3.70;99.90;;;;;;5023778;28;20034;-60
2022/01/08 04:53:51;;;;;;;10.38;1.38;;;3.70;99.90;;;;;;5021876;28;20077;-60
2022/01/08 04:56:17;;;;;;;6.72;1.42;;;3.60;99.90;;;;;;5003091;28;20136;-60
2022/01/08 04:58:43;;;;;;;11.90;1.60;;;3.60;99.90;;;;;;5024845;28;20397;-60
2022/01/08 05:01:13;;;;;;;5.28;1.17;;;3.60;99.90;;;;;;5024605;28;20060;-60
2022/01/08 05:03:38;;;;;;;6.53;2.05;;;3.50;99.90;;;;;;5027500;28;20044;-60
2022/01/08 05:06:04;;;;;;;11.27;1.90;;;3.60;99.90;;;;;;5020166;28;20050;-60
2022/01/08 05:08:29;;;;;;;9.90;1.50;;;3.50;99.90;;;;;;5018970;28;20512;-60
2022/01/08 05:10:55;;;;;;;6.38;1.25;;;3.50;99.90;;;;;;5011283;28;20042;-60
2022/01/08 05:13:21;;;;;;;8.23;3.03;;;3.40;99.90;;;;;;5008492;28;20103;-60
2022/01/08 05:15:46;;;;;;;11.25;2.40;;;3.40;99.90;;;;;;5019707;28;20135;-60
2022/01/08 05:18:12;;;;;;;9.63;1.73;;;3.40;99.90;;;;;;5016861;28;20442;-60
2022/01/08 05:20:41;;;;;;;3.83;1.35;;;3.30;99.90;;;;;;5019002;28;20041;-60
2022/01/08 05:23:07;;;;;;;10.13;1.40;;;3.30;99.90;;;;;;5027666;28;20504;-60
2022/01/08 05:25:33;;;;;;;6.10;1.30;;;3.20;99.90;;;;;;5026308;28;20046;-60
2022/01/08 05:28:00;;;;;;;7.07;1.98;;;3.10;99.90;;;;;;4987125;28;1007211;-60
2022/01/08 05:30:27;;;;;;;7.95;1.50;;;3.00;99.90;;;;;;5019802;28;20049;-60
2022/01/08 05:32:53;;;;;;;5.60;2.08;;;3.00;99.90;;;;;;5006456;28;20510;-60
2022/01/08 05:35:19;;;;;;;4.05;1.50;;;3.00;99.90;;;;;;5017557;28;20390;-60
2022/01/08 05:37:45;;;;;;;7.28;2.00;;;3.00;99.90;;;;;;5012010;28;20102;-60
2022/01/08 05:40:11;;;;;;;11.25;2.45;;;3.00;99.90;;;;;;5020953;28;20490;-60
2022/01/08 05:42:38;;;;;;;8.13;1.92;;;3.00;99.90;;;;;;5020610;28;20053;-60
2022/01/08 05:45:04;;;;;;;8.38;1.98;;;2.90;99.90;;;;;;5029497;28;20046;-60
2022/01/08 05:47:32;;;;;;;7.10;2.00;;;2.90;99.90;;;;;;5028096;28;20128;-60
2022/01/08 05:49:58;;;;;;;8.93;2.28;;;2.90;99.90;;;;;;5019196;28;20049;-60
2022/01/08 05:52:23;;;;;;;10.38;2.63;;;2.90;99.90;;;;;;5028322;28;20045;-60
2022/01/08 05:54:49;;;;;;;9.38;2.00;;;2.90;99.90;;;;;;5018898;28;20060;-60
2022/01/08 05:57:15;;;;;;;9.00;2.20;;;2.90;99.90;;;;;;5019872;28;20064;-60
2022/01/08 05:59:40;;;;;;;8.55;2.85;;;2.90;99.90;;;;;;5024338;28;20132;-60
2022/01/08 06:02:09;;;;;;;9.77;2.00;;;2.90;99.90;;;;;;5023396;28;20029;-60
2022/01/08 06:04:34;;;;;;;8.82;1.98;;;2.80;99.90;;;;;;5028904;28;20481;-60
2022/01/08 06:07:00;;;;;;;4.82;1.65;;;2.80;99.90;;;;;;5019870;28;20046;-60
2022/01/08 06:09:26;;;;;;;6.22;1.63;;;2.80;99.90;;;;;;5019468;28;20069;-60
2022/01/08 06:11:51;;;;;;;7.65;2.20;;;2.80;99.90;;;;;;5021439;28;20359;-60
2022/01/08 06:14:17;;;;;;;10.10;1.80;;;2.70;99.90;;;;;;4995389;28;20049;-60
2022/01/08 06:16:42;;;;;;;10.02;2.13;;;2.70;99.90;;;;;;5026551;28;20045;-60
2022/01/08 06:19:10;;;;;;;5.60;1.40;;;2.70;99.90;;;;;;5027968;28;20459;-60
2022/01/08 06:21:36;;;;;;;4.28;1.48;;;2.70;99.90;;;;;;5013167;28;20057;-60
2022/01/08 06:24:03;;;;;;;7.68;2.00;;;2.60;99.90;;;;;;5011328;28;20049;-59
2022/01/08 06:26:29;;;;;;;11.00;1.95;;;2.50;99.90;;;;;;5023403;28;20046;-60
2022/01/08 06:28:55;;;;;;;9.32;1.65;;;2.50;99.90;;;;;;5015457;28;20058;-60
2022/01/08 06:31:22;;;;;;;9.23;2.22;;;2.60;99.90;;;;;;5024846;28;20045;-60
2022/01/08 06:33:48;;;;;;;6.50;1.63;;;2.50;99.90;;;;;;5026450;28;20043;-60
2022/01/08 06:36:17;;;;;;;8.68;2.00;;;2.50;99.90;;;;;;5024502;28;20106;-59
2022/01/08 06:38:43;;;;;;;10.98;2.92;;;2.50;99.90;;;;;;5023293;28;20080;-60
2022/01/08 06:41:09;;;;;;;14.85;1.75;;;2.50;99.90;;;;;;5025681;28;20665;-60
2022/01/08 06:43:34;;;;;;;6.82;1.98;;;2.50;99.90;;;;;;5024697;28;20111;-60
2022/01/08 06:46:01;;;;;;;8.20;2.28;;;2.50;99.90;;;;;;5023806;28;20104;-60
2022/01/08 06:48:26;;;;;;;4.30;1.55;;;2.50;99.90;;;;;;5022258;28;20108;-60
2022/01/08 06:50:52;;;;;;;3.22;1.35;;;2.50;99.90;;;;;;5014860;28;20050;-60
2022/01/08 06:53:17;;;;;;;7.03;1.83;;;2.50;99.90;;;;;;5023541;28;20045;-60
2022/01/08 06:55:43;;;;;;;10.38;2.40;;;2.50;99.90;;;;;;5023409;28;20042;-60
2022/01/08 06:58:09;;;;;;;15.82;2.85;;;2.50;99.90;;;;;;5013253;28;20053;-60
2022/01/08 07:00:35;;;;;;;4.88;1.52;;;2.50;99.90;;;;;;5017966;28;20053;-60
2022/01/08 07:03:01;;;;;;;9.73;2.13;;;2.50;99.90;;;;;;5022643;28;20045;-60
2022/01/08 07:05:26;;;;;;;9.57;1.98;;;2.50;99.90;;;;;;5026207;28;20041;-60
2022/01/08 07:07:52;;;;;;;8.43;1.60;;;2.50;99.90;;;;;;5022276;28;20103;-60
2022/01/08 07:10:17;;;;;;;11.68;1.77;;;2.60;99.90;;;;;;5021097;28;20054;-60
2022/01/08 07:12:43;;;;;;;24.45;3.30;;;2.60;99.90;;;;;;5022016;28;20038;-59
2022/01/08 07:15:09;;;;;;;8.18;2.22;;;2.50;99.90;;;;;;5006989;28;20045;-60
2022/01/08 07:17:35;;;;;;;11.00;2.92;;;2.50;99.90;;;;;;5019543;28;20050;-60
2022/01/08 07:20:00;;;;;;;9.25;2.00;;;2.60;99.90;;;;;;5020685;28;20061;-60
2022/01/08 07:22:27;;;;;;;9.63;2.95;;;2.60;99.90;;;;;;5025922;28;20702;-60
2022/01/08 07:24:52;;;;;;;6.13;1.48;;;2.60;99.90;;;;;;5026137;28;20095;-60
2022/01/08 07:27:18;;;;;;;10.77;1.90;;;2.60;99.90;;;;;;5019494;28;20137;-60
2022/01/08 07:29:43;;;;;;;7.28;2.75;;;2.70;99.90;;;;;;5021109;28;20046;-60
2022/01/08 07:32:09;;;;;;;8.45;1.80;;;2.70;99.90;;;;;;4997241;28;20060;-60
2022/01/08 07:34:35;;;;;;;7.80;1.38;;;2.60;99.90;;;;;;5024065;28;20072;-60
2022/01/08 07:37:00;;;;;;;7.95;2.60;;;2.70;99.90;;;;;;5017533;28;20087;-60
2022/01/08 07:39:26;;;;;;;12.90;2.53;;;2.70;99.90;;;;;;5018517;28;20046;-60
2022/01/08 07:41:51;;;;;;;10.07;2.60;;;2.70;99.90;;;;;;5018006;28;20461;-60
2022/01/08 07:44:17;;;;;;;7.60;1.60;;;2.70;99.90;;;;;;5027572;28;20048;-60
2022/01/08 07:46:42;;;;;;;12.20;2.80;;;2.70;99.90;;;;;;5025955;28;20048;-60
2022/01/08 07:49:09;;;;;;;10.35;2.00;;;2.70;99.90;;;;;;5017779;28;20059;-59
2022/01/08 07:51:35;;;;;;;9.10;1.92;;;2.80;99.90;;;;;;5019857;28;20085;-59
2022/01/08 07:54:00;;;;;;;9.05;2.25;;;2.70;99.90;;;;;;4998435;28;20073;-60
2022/01/08 07:56:26;;;;;;;10.88;2.58;;;2.70;99.90;;;;;;5011801;28;20050;-60
2022/01/08 07:58:52;;;;;;;14.65;3.35;;;2.70;99.90;;;;;;5021336;28;20701;-60
2022/01/08 08:01:17;;;;;;;7.68;2.35;;;2.80;99.90;;;;;;5023132;28;20194;-60
2022/01/08 08:03:43;;;;;;;8.15;2.50;;;2.70;99.90;;;;;;5014016;28;20187;-60
2022/01/08 08:06:11;;;;;;;9.63;2.95;;;2.70;99.90;;;;;;5023324;28;20057;-60
2022/01/08 08:08:37;;;;;;;8.98;1.90;;;2.70;99.90;;;;;;5026170;28;20045;-60
2022/01/08 08:11:03;;;;;;;7.90;2.38;;;2.70;99.90;;;;;;5022363;28;20047;-60
2022/01/08 08:13:28;;;;;;;11.05;2.92;;;2.80;99.90;;;;;;5021472;28;20050;-60
2022/01/08 08:15:54;;;;;;;12.02;2.72;;;2.80;99.90;;;;;;5018879;28;20087;-60
2022/01/08 08:18:19;;;;;;;15.13;2.75;;;2.80;99.90;;;;;;5014712;28;20529;-60
2022/01/08 08:20:45;;;;;;;12.32;2.42;;;2.80;99.90;;;;;;5024952;28;20496;-60
2022/01/08 08:23:11;;;;;;;9.07;2.60;;;2.90;99.90;;;;;;5011364;28;20129;-60
2022/01/08 08:25:37;;;;;;;7.40;2.17;;;2.90;99.90;;;;;;5030017;28;20046;-60
2022/01/08 08:28:07;;;;;;;12.90;2.63;;;2.90;99.90;;;;;;4998304;28;20482;-60
2022/01/08 08:30:33;;;;;;;7.32;2.08;;;3.00;99.90;;;;;;5009616;28;20406;-60
2022/01/08 08:33:03;;;;;;;7.72;3.55;;;3.00;99.90;;;;;;5028276;28;20110;-60
2022/01/08 08:35:29;;;;;;;12.00;3.65;;;3.00;99.90;;;;;;5021234;28;20120;-60
2022/01/08 08:37:54;;;;;;;12.20;2.90;;;3.00;99.90;;;;;;5016903;28;20141;-60
2022/01/08 08:40:20;;;;;;;10.90;2.65;;;3.00;99.90;;;;;;5023613;28;20056;-60
2022/01/08 08:42:45;;;;;;;9.18;2.63;;;3.00;99.90;;;;;;5025170;28;20053;-60
2022/01/08 08:45:11;;;;;;;16.77;3.70;;;3.10;99.90;;;;;;5025564;28;20374;-60
2022/01/08 08:47:39;;;;;;;12.95;2.85;;;3.10;99.90;;;;;;5021051;28;20065;-60
2022/01/08 08:50:06;;;;;;;9.23;2.88;;;3.10;99.90;;;;;;5019722;28;20049;-60
2022/01/08 08:52:32;;;;;;;8.75;2.42;;;3.10;99.90;;;;;;5018854;28;20456;-60
2022/01/08 08:54:58;;;;;;;6.82;2.00;;;3.00;99.90;;;;;;5018911;28;20049;-60
2022/01/08 08:57:23;;;;;;;9.63;2.38;;;3.10;99.90;;;;;;5019311;28;20049;-60
2022/01/08 08:59:49;;;;;;;9.63;3.50;;;3.10;99.90;;;;;;5018434;28;20409;-60
2022/01/08 09:02:14;;;;;;;9.55;3.03;;;3.10;99.90;;;;;;5022051;28;20485;-60
2022/01/08 09:04:41;;;;;;;7.30;2.40;;;3.10;99.90;;;;;;5019703;28;20057;-60
2022/01/08 09:07:08;;;;;;;16.23;3.03;;;3.10;99.90;;;;;;5020343;28;20053;-60
2022/01/08 09:09:33;;;;;;;10.45;2.38;;;3.20;99.90;;;;;;5023205;28;20042;-60
2022/01/08 09:11:59;;;;;;;6.65;2.17;;;3.20;99.90;;;;;;5022249;28;20041;-60
2022/01/08 09:14:25;;;;;;;9.15;3.15;;;3.20;99.90;;;;;;5024566;28;22137;-60
2022/01/08 09:16:55;;;;;;;3.80;2.05;;;3.20;99.90;;;;;;5020192;28;20041;-60
2022/01/08 09:19:21;;;;;;;8.00;2.58;;;3.30;99.90;;;;;;5006166;28;20053;-60
2022/01/08 09:21:48;;;;;;;9.60;2.67;;;3.30;99.90;;;;;;5029559;28;20042;-60
2022/01/08 09:24:15;;;;;;;15.02;2.75;;;3.30;99.90;;;;;;5009947;28;20167;-60
2022/01/08 09:26:40;;;;;;;13.43;3.20;;;3.40;99.90;;;;;;5024470;28;20065;-60
2022/01/08 09:29:06;;;;;;;16.75;3.60;;;3.40;99.90;;;;;;5011837;28;20091;-60
2022/01/08 09:31:32;;;;;;;10.95;3.15;;;3.50;99.90;;;;;;5019798;28;20052;-60
2022/01/08 09:33:58;;;;;;;18.20;3.13;;;3.50;99.90;;;;;;5027259;28;20123;-60
2022/01/08 09:36:24;;;;;;;8.68;2.53;;;3.60;99.90;;;;;;5022013;28;20073;-60
2022/01/08 09:38:50;;;;;;;11.95;2.80;;;3.60;99.90;;;;;;5020185;28;20073;-60
2022/01/08 09:41:16;;;;;;;14.15;2.80;;;3.60;99.90;;;;;;5024909;28;20052;-60
2022/01/08 09:43:42;;;;;;;14.30;2.80;;;3.70;99.90;;;;;;5022714;28;20495;-60
2022/01/08 09:46:08;;;;;;;10.88;2.63;;;3.70;99.90;;;;;;5020114;28;20057;-60
2022/01/08 09:48:34;;;;;;;7.45;2.95;;;3.70;99.90;;;;;;5019962;28;20524;-60
2022/01/08 09:50:59;;;;;;;15.68;3.35;;;3.80;99.90;;;;;;5007944;28;20053;-60
2022/01/08 09:53:25;;;;;;;13.85;2.60;;;3.80;99.90;;;;;;5028044;28;20033;-60
2022/01/08 09:55:51;;;;;;;9.88;3.05;;;3.90;99.90;;;;;;5022852;28;20042;-60
2022/01/08 09:58:17;;;;;;;8.43;2.30;;;4.00;99.90;;;;;;5012389;28;20526;-60
2022/01/08 10:00:45;;;;;;;11.52;3.05;;;4.00;99.90;;;;;;5013311;28;20459;-60
2022/01/08 10:03:22;;;;;;;9.40;3.40;;;4.00;99.90;;;;;;5019316;28;20594;-60
2022/01/08 10:05:49;;;;;;;10.50;2.85;;;4.00;99.90;;;;;;5024862;28;20489;-60
2022/01/08 10:08:21;;;;;;;13.00;3.05;;;4.10;99.90;;;;;;5023656;28;20917;-63
2022/01/08 10:10:55;;;;;;;14.18;2.90;;;4.10;99.90;;;;;;5012559;28;20053;-63
2022/01/08 10:13:24;;;;;;;12.80;3.40;;;4.10;99.90;;;;;;5016166;28;20049;-63
2022/01/08 10:18:38;;;;;;;13.48;3.65;;;4.20;99.90;;;;;;5022024;28;20038;-63
2022/01/08 10:21:25;;;;;;;18.17;4.85;;;4.20;99.90;;;;;;5021949;28;20491;-62
2022/01/08 10:23:55;;;;;;;17.33;3.70;;;4.40;99.90;;;;;;5024700;28;20486;-62
2022/01/08 10:26:22;;;;;;;9.05;2.63;;;4.30;99.90;;;;;;5024106;28;20569;-62
2022/01/08 10:28:54;;;;;;;17.85;3.47;;;4.40;99.90;;;;;;5013473;28;20084;-62
2022/01/08 10:31:26;;;;;;;8.60;3.25;;;4.40;99.90;;;;;;5023872;28;20064;-63
2022/01/08 10:33:57;;;;;;;8.07;2.97;;;4.50;99.90;;;;;;5015406;28;20049;-62
2022/01/08 10:36:30;;;;;;;8.55;3.15;;;4.50;99.90;;;;;;5023084;28;20057;-62
2022/01/08 10:38:58;;;;;;;10.93;2.95;;;4.50;99.90;;;;;;5017401;28;20038;-62
2022/01/08 10:41:25;;;;;;;16.40;3.55;;;4.50;99.90;;;;;;5019997;28;20143;-62
2022/01/08 10:44:12;;;;;;;8.73;3.72;;;4.60;99.90;;;;;;5025040;28;20048;-63
2022/01/08 10:46:45;;;;;;;18.48;3.22;;;4.50;99.90;;;;;;5027500;28;20045;-63
2022/01/08 10:49:14;;;;;;;15.05;3.13;;;4.50;99.90;;;;;;5025770;28;20045;-63
2022/01/08 10:51:40;;;;;;;10.32;3.80;;;4.50;99.90;;;;;;5005893;28;20508;-62
2022/01/08 10:54:16;;;;;;;10.65;3.90;;;4.50;99.90;;;;;;5020006;28;20489;-61
2022/01/08 10:56:44;;;;;;;15.18;3.78;;;4.50;99.90;;;;;;5021246;28;20053;-60
2022/01/08 10:59:14;;;;;;;16.42;3.92;;;4.50;99.90;;;;;;5016570;28;20076;-61
2022/01/08 11:01:44;;;;;;;16.63;4.72;;;4.50;99.90;;;;;;5016487;28;20045;-61
2022/01/08 11:04:13;;;;;;;10.80;3.30;;;4.50;99.90;;;;;;5019663;28;20379;-60
2022/01/08 11:06:54;;;;;;;13.07;4.32;;;4.50;99.90;;;;;;5022200;28;20038;-61
2022/01/08 11:09:20;;;;;;;15.60;3.60;;;4.50;99.90;;;;;;5023820;28;20049;-61
2022/01/08 11:11:47;;;;;;;13.70;3.97;;;4.50;99.90;;;;;;5017591;28;20041;-61
2022/01/08 11:14:24;;;;;;;8.18;3.17;;;4.60;99.90;;;;;;5028178;28;20191;-60
2022/01/08 11:16:51;;;;;;;13.55;4.15;;;4.60;99.90;;;;;;5022344;28;20045;-60
2022/01/08 11:19:17;;;;;;;15.88;4.55;;;4.70;99.90;;;;;;5017965;28;20049;-60
2022/01/08 11:21:47;;;;;;;10.85;3.03;;;4.70;99.90;;;;;;5028446;28;20419;-60
2022/01/08 11:24:15;;;;;;;14.48;3.63;;;4.70;99.90;;;;;;5020813;28;20051;-60
2022/01/08 11:26:42;;;;;;;13.93;3.80;;;4.80;99.90;;;;;;5020160;28;20056;-60
2022/01/08 11:29:10;;;;;;;11.65;3.65;;;4.80;99.90;;;;;;5018256;28;20519;-62
2022/01/08 11:31:37;;;;;;;13.07;3.28;;;4.80;99.90;;;;;;5010820;28;20128;-63
2022/01/08 11:34:08;;;;;;;9.23;3.47;;;4.80;99.90;;;;;;5017181;28;20493;-63
2022/01/08 11:36:35;;;;;;;9.73;3.42;;;4.80;99.90;;;;;;5025272;28;20128;-62
2022/01/08 11:39:01;;;;;;;12.88;3.33;;;4.80;99.90;;;;;;5027315;28;20485;-62
2022/01/08 11:41:28;;;;;;;13.48;4.13;;;4.80;99.90;;;;;;5025545;28;20037;-62
2022/01/08 11:43:55;;;;;;;11.57;4.18;;;4.80;99.90;;;;;;5022511;28;20049;-62
2022/01/08 11:46:23;;;;;;;15.73;4.57;;;4.90;99.90;;;;;;5017741;28;20060;-62
2022/01/08 11:48:51;;;;;;;15.85;4.63;;;4.90;99.90;;;;;;5007078;28;20481;-62
2022/01/08 11:51:19;;;;;;;9.52;3.78;;;4.90;99.90;;;;;;5018348;28;20516;-62
2022/01/08 11:53:50;;;;;;;22.30;6.30;;;4.90;99.90;;;;;;5020574;28;20048;-62
2022/01/08 11:56:21;;;;;;;14.10;5.57;;;4.90;99.90;;;;;;5022923;28;20176;-62
2022/01/08 11:59:02;;;;;;;15.63;6.35;;;4.90;99.90;;;;;;5021352;28;20056;-62
2022/01/08 12:01:28;;;;;;;10.63;5.82;;;4.90;99.90;;;;;;5019719;28;20052;-62
2022/01/08 12:03:55;;;;;;;13.18;5.60;;;4.90;99.90;;;;;;5019481;28;20042;-62
2022/01/08 12:06:32;;;;;;;18.83;6.60;;;4.80;99.90;;;;;;5021157;28;20187;-62
2022/01/08 12:09:08;;;;;;;13.65;6.80;;;4.90;99.90;;;;;;5022627;28;20045;-62
2022/01/08 12:11:49;;;;;;;14.60;7.03;;;4.90;99.90;;;;;;5029997;28;20042;-62
2022/01/08 12:14:22;;;;;;;17.85;6.93;;;4.80;99.90;;;;;;5026446;28;20416;-62
2022/01/08 12:16:52;;;;;;;16.38;7.88;;;4.80;99.90;;;;;;5018466;28;20050;-62
2022/01/08 12:19:34;;;;;;;11.90;7.78;;;4.80;99.90;;;;;;5017858;28;20136;-62
2022/01/08 12:22:15;;;;;;;15.38;7.13;;;4.80;99.90;;;;;;5017302;28;20133;-62
2022/01/08 12:24:45;;;;;;;13.48;7.03;;;4.80;99.90;;;;;;5020314;28;20049;-62
2022/01/08 12:27:34;;;;;;;9.80;6.72;;;4.70;99.90;;;;;;5015433;28;20398;-62
2022/01/08 12:30:22;;;;;;;14.00;6.95;;;4.70;99.90;;;;;;5010376;28;20529;-62
2022/01/08 12:32:54;;;;;;;16.48;8.07;;;4.70;99.90;;;;;;5014034;28;20485;-62
2022/01/08 12:35:24;;;;;;;11.35;7.35;;;4.60;99.90;;;;;;5030524;28;20088;-62
2022/01/08 12:37:55;;;;;;;16.23;8.20;;;4.70;99.90;;;;;;5019908;28;20064;-62
2022/01/08 12:40:40;;;;;;;21.00;8.70;;;4.60;99.90;;;;;;5013121;28;20084;-62
2022/01/08 12:43:34;;;;;;;14.73;8.02;;;4.60;99.90;;;;;;5001499;28;20077;-61
2022/01/08 12:46:14;;;;;;;16.35;7.97;;;4.60;99.90;;;;;;5025092;28;20064;-61
2022/01/08 12:49:03;;;;;;;20.38;8.05;;;4.60;99.90;;;;;;5025967;28;20046;-61
2022/01/08 12:51:51;;;;;;;7.90;3.80;;;4.50;99.90;;;;;;5027901;28;20049;-60
2022/01/08 12:54:18;;;;;;;6.55;2.97;;;4.50;99.90;;;;;;5022888;28;20057;-61
2022/01/08 12:56:52;;;;;;;11.55;3.47;;;4.50;99.90;;;;;;5026405;28;20094;-61
2022/01/08 12:59:20;;;;;;;4.43;2.20;;;4.50;99.90;;;;;;5017858;28;20586;-61
2022/01/08 13:01:50;;;;;;;6.40;2.40;;;4.50;99.90;;;;;;5022683;28;20050;-61
2022/01/08 13:04:18;;;;;;;2.53;1.50;;;4.50;99.90;;;;;;5007157;28;20045;-61
2022/01/08 13:06:44;;;;;;;5.05;1.63;;;4.50;99.90;;;;;;5028372;28;20450;-61
2022/01/08 13:09:11;;;;;;;3.38;1.48;;;4.50;99.90;;;;;;5024950;28;20608;-61
2022/01/08 13:11:40;;;;;;;3.10;1.27;;;4.50;99.90;;;;;;5018437;28;20590;-61
2022/01/08 13:14:11;;;;;;;2.67;1.65;;;4.50;99.90;;;;;;5018756;28;20362;-61
2022/01/08 13:16:53;;;;;;;7.72;2.03;;;4.50;99.90;;;;;;5025480;28;20046;-61